sensor_id;sensor_type;location;lat;lon;timestamp;P1;P2;P0
59179;PMS7003;44956;52.422;20.818;2023-04-01T00:02:29;50.75;40.75;25.25
59179;PMS7003;44956;52.422;20.818;2023-04-01T00:05:31;49.00;39.25;26.25
59179;PMS7003;44956;52.422;20.818;2023-04-01T00:08:34;48.00;39.75;25.50
59179;PMS7003;44956;52.422;20.818;2023-04-01T00:11:37;55.50;43.50;27.00
59179;PMS7003;44956;52.422;20.818;2023-04-01T00:14:40;52.50;43.50;27.00
59179;PMS7003;44956;52.422;20.818;2023-04-01T00:17:43;54.50;41.50;25.25
59179;PMS7003;44956;52.422;20.818;2023-04-01T00:20:49;45.00;40.25;25.00
59179;PMS7003;44956;52.422;20.818;2023-04-01T00:23:53;51.50;42.50;24.25
59179;PMS7003;44956;52.422;20.818;2023-04-01T00:26:55;41.50;37.25;21.00
59179;PMS7003;44956;52.422;20.818;2023-04-01T00:29:58;49.00;37.75;25.00
59179;PMS7003;44956;52.422;20.818;2023-04-01T00:33:00;45.25;40.75;25.25
59179;PMS7003;44956;52.422;20.818;2023-04-01T00:36:13;53.50;44.75;27.00
59179;PMS7003;44956;52.422;20.818;2023-04-01T00:39:18;48.25;40.00;25.00
59179;PMS7003;44956;52.422;20.818;2023-04-01T00:42:23;56.00;41.25;25.75
59179;PMS7003;44956;52.422;20.818;2023-04-01T00:45:27;53.75;42.75;26.00
59179;PMS7003;44956;52.422;20.818;2023-04-01T00:48:43;50.00;39.25;23.75
59179;PMS7003;44956;52.422;20.818;2023-04-01T00:51:50;51.75;41.25;25.00
59179;PMS7003;44956;52.422;20.818;2023-04-01T00:54:56;44.00;40.25;25.00
59179;PMS7003;44956;52.422;20.818;2023-04-01T00:58:02;45.00;41.00;25.00
59179;PMS7003;44956;52.422;20.818;2023-04-01T01:01:07;47.50;40.50;25.00
59179;PMS7003;44956;52.422;20.818;2023-04-01T01:04:24;49.25;40.00;25.00
59179;PMS7003;44956;52.422;20.818;2023-04-01T01:10:45;48.50;40.25;25.00
59179;PMS7003;44956;52.422;20.818;2023-04-01T01:13:58;48.00;40.50;26.50
59179;PMS7003;44956;52.422;20.818;2023-04-01T01:27:12;48.50;37.50;24.50
59179;PMS7003;44956;52.422;20.818;2023-04-01T01:33:54;49.00;40.25;23.25
59179;PMS7003;44956;52.422;20.818;2023-04-01T01:37:07;45.25;38.00;22.00
59179;PMS7003;44956;52.422;20.818;2023-04-01T01:40:13;46.75;38.50;22.00
59179;PMS7003;44956;52.422;20.818;2023-04-01T01:43:19;46.25;40.75;23.75
59179;PMS7003;44956;52.422;20.818;2023-04-01T01:46:34;40.00;35.25;22.50
59179;PMS7003;44956;52.422;20.818;2023-04-01T01:49:38;44.50;40.00;24.75
59179;PMS7003;44956;52.422;20.818;2023-04-01T01:52:43;42.75;38.00;21.25
59179;PMS7003;44956;52.422;20.818;2023-04-01T01:55:46;45.25;39.25;24.50
59179;PMS7003;44956;52.422;20.818;2023-04-01T01:58:51;44.50;38.75;21.50
59179;PMS7003;44956;52.422;20.818;2023-04-01T02:01:57;48.25;39.75;22.50
59179;PMS7003;44956;52.422;20.818;2023-04-01T02:05:01;42.50;37.75;21.50
59179;PMS7003;44956;52.422;20.818;2023-04-01T02:08:14;56.50;41.00;23.75
59179;PMS7003;44956;52.422;20.818;2023-04-01T02:11:21;51.50;41.25;23.75
59179;PMS7003;44956;52.422;20.818;2023-04-01T02:14:36;40.00;32.75;21.00
59179;PMS7003;44956;52.422;20.818;2023-04-01T02:17:44;42.50;38.50;23.25
59179;PMS7003;44956;52.422;20.818;2023-04-01T02:20:48;42.00;37.00;22.25
59179;PMS7003;44956;52.422;20.818;2023-04-01T02:23:52;38.25;33.25;17.50
59179;PMS7003;44956;52.422;20.818;2023-04-01T02:26:55;39.25;36.00;21.25
59179;PMS7003;44956;52.422;20.818;2023-04-01T02:29:58;36.75;33.25;20.00
59179;PMS7003;44956;52.422;20.818;2023-04-01T02:33:01;38.25;34.50;18.50
59179;PMS7003;44956;52.422;20.818;2023-04-01T02:36:09;40.75;36.75;20.50
59179;PMS7003;44956;52.422;20.818;2023-04-01T02:39:16;46.25;38.75;22.00
59179;PMS7003;44956;52.422;20.818;2023-04-01T02:42:19;41.25;32.25;20.50
59179;PMS7003;44956;52.422;20.818;2023-04-01T02:45:22;31.25;28.75;16.50
59179;PMS7003;44956;52.422;20.818;2023-04-01T02:48:24;34.75;34.00;20.25
59179;PMS7003;44956;52.422;20.818;2023-04-01T02:51:27;43.00;35.50;19.25
59179;PMS7003;44956;52.422;20.818;2023-04-01T02:54:33;34.00;33.00;17.50
59179;PMS7003;44956;52.422;20.818;2023-04-01T02:57:35;35.50;32.00;17.00
59179;PMS7003;44956;52.422;20.818;2023-04-01T03:00:38;37.50;35.25;17.75
59179;PMS7003;44956;52.422;20.818;2023-04-01T03:03:41;39.75;34.75;18.50
59179;PMS7003;44956;52.422;20.818;2023-04-01T03:06:44;35.75;35.00;20.25
59179;PMS7003;44956;52.422;20.818;2023-04-01T03:09:47;30.00;26.25;20.00
59179;PMS7003;44956;52.422;20.818;2023-04-01T03:12:50;43.50;37.00;20.00
59179;PMS7003;44956;52.422;20.818;2023-04-01T03:15:52;38.00;34.50;17.25
59179;PMS7003;44956;52.422;20.818;2023-04-01T03:18:55;30.75;25.75;18.25
59179;PMS7003;44956;52.422;20.818;2023-04-01T03:22:00;37.25;33.25;19.25
59179;PMS7003;44956;52.422;20.818;2023-04-01T03:25:04;24.50;22.25;12.75
59179;PMS7003;44956;52.422;20.818;2023-04-01T03:28:07;35.75;31.25;14.50
59179;PMS7003;44956;52.422;20.818;2023-04-01T03:31:11;36.50;33.25;18.25
59179;PMS7003;44956;52.422;20.818;2023-04-01T03:38:29;35.50;32.75;17.00
59179;PMS7003;44956;52.422;20.818;2023-04-01T03:45:18;37.25;34.75;18.50
59179;PMS7003;44956;52.422;20.818;2023-04-01T03:52:07;37.00;30.25;18.75
59179;PMS7003;44956;52.422;20.818;2023-04-01T03:55:11;37.00;33.75;19.75
59179;PMS7003;44956;52.422;20.818;2023-04-01T03:58:14;39.00;32.00;18.50
59179;PMS7003;44956;52.422;20.818;2023-04-01T04:01:21;39.75;36.75;20.00
59179;PMS7003;44956;52.422;20.818;2023-04-01T04:04:29;38.00;33.75;18.00
59179;PMS7003;44956;52.422;20.818;2023-04-01T04:07:33;31.50;30.75;17.25
59179;PMS7003;44956;52.422;20.818;2023-04-01T04:10:40;37.25;33.25;17.00
59179;PMS7003;44956;52.422;20.818;2023-04-01T04:13:43;35.25;32.00;18.75
59179;PMS7003;44956;52.422;20.818;2023-04-01T04:16:46;31.00;31.00;20.25
59179;PMS7003;44956;52.422;20.818;2023-04-01T04:19:49;45.25;34.75;21.00
59179;PMS7003;44956;52.422;20.818;2023-04-01T04:22:52;45.50;37.25;20.25
59179;PMS7003;44956;52.422;20.818;2023-04-01T04:25:56;40.25;37.00;20.50
59179;PMS7003;44956;52.422;20.818;2023-04-01T04:29:02;30.75;27.75;16.00
59179;PMS7003;44956;52.422;20.818;2023-04-01T04:32:05;32.25;30.50;19.75
59179;PMS7003;44956;52.422;20.818;2023-04-01T04:35:08;30.25;29.75;19.00
59179;PMS7003;44956;52.422;20.818;2023-04-01T04:38:12;40.25;30.00;16.50
59179;PMS7003;44956;52.422;20.818;2023-04-01T04:41:15;35.50;30.00;16.00
59179;PMS7003;44956;52.422;20.818;2023-04-01T04:44:23;38.75;35.50;20.50
59179;PMS7003;44956;52.422;20.818;2023-04-01T04:47:26;42.50;36.50;20.00
59179;PMS7003;44956;52.422;20.818;2023-04-01T04:50:28;39.00;31.50;20.25
59179;PMS7003;44956;52.422;20.818;2023-04-01T04:57:13;38.25;36.75;19.50
59179;PMS7003;44956;52.422;20.818;2023-04-01T05:00:22;41.50;38.00;21.75
59179;PMS7003;44956;52.422;20.818;2023-04-01T05:03:34;49.25;40.75;23.00
59179;PMS7003;44956;52.422;20.818;2023-04-01T05:06:37;45.25;38.00;21.00
59179;PMS7003;44956;52.422;20.818;2023-04-01T05:09:41;41.25;35.75;24.00
59179;PMS7003;44956;52.422;20.818;2023-04-01T05:12:44;42.25;37.50;21.00
59179;PMS7003;44956;52.422;20.818;2023-04-01T05:15:51;43.00;38.00;20.25
59179;PMS7003;44956;52.422;20.818;2023-04-01T05:18:54;53.50;41.75;22.50
59179;PMS7003;44956;52.422;20.818;2023-04-01T05:21:57;40.00;34.50;19.25
59179;PMS7003;44956;52.422;20.818;2023-04-01T05:25:00;41.50;36.75;22.00
59179;PMS7003;44956;52.422;20.818;2023-04-01T05:28:03;45.25;40.00;23.25
59179;PMS7003;44956;52.422;20.818;2023-04-01T05:31:06;44.25;38.75;20.00
59179;PMS7003;44956;52.422;20.818;2023-04-01T05:34:12;42.75;36.75;20.25
59179;PMS7003;44956;52.422;20.818;2023-04-01T05:37:16;34.75;33.50;20.00
59179;PMS7003;44956;52.422;20.818;2023-04-01T05:40:19;34.50;31.25;19.00
59179;PMS7003;44956;52.422;20.818;2023-04-01T05:43:22;32.00;28.00;14.75
59179;PMS7003;44956;52.422;20.818;2023-04-01T05:46:25;33.50;30.25;19.00
59179;PMS7003;44956;52.422;20.818;2023-04-01T05:49:34;33.75;30.00;15.50
59179;PMS7003;44956;52.422;20.818;2023-04-01T05:52:38;31.75;31.00;16.00
59179;PMS7003;44956;52.422;20.818;2023-04-01T05:59:15;28.75;25.00;14.00
59179;PMS7003;44956;52.422;20.818;2023-04-01T06:02:18;25.00;24.00;8.75
59179;PMS7003;44956;52.422;20.818;2023-04-01T06:05:23;24.25;22.25;14.50
59179;PMS7003;44956;52.422;20.818;2023-04-01T06:08:27;25.25;22.00;11.00
59179;PMS7003;44956;52.422;20.818;2023-04-01T06:14:42;15.75;15.75;11.50
59179;PMS7003;44956;52.422;20.818;2023-04-01T06:24:15;20.50;17.75;11.00
59179;PMS7003;44956;52.422;20.818;2023-04-01T06:31:17;19.25;16.75;9.00
59179;PMS7003;44956;52.422;20.818;2023-04-01T06:34:49;17.00;14.75;9.25
59179;PMS7003;44956;52.422;20.818;2023-04-01T06:48:33;17.25;14.50;10.25
59179;PMS7003;44956;52.422;20.818;2023-04-01T06:52:15;19.50;17.00;10.00
59179;PMS7003;44956;52.422;20.818;2023-04-01T06:59:19;22.50;19.25;10.25
59179;PMS7003;44956;52.422;20.818;2023-04-01T07:02:45;24.75;23.00;14.75
59179;PMS7003;44956;52.422;20.818;2023-04-01T07:05:57;11.00;11.00;6.75
59179;PMS7003;44956;52.422;20.818;2023-04-01T07:09:38;11.50;11.25;6.00
59179;PMS7003;44956;52.422;20.818;2023-04-01T07:13:07;8.50;8.50;5.00
59179;PMS7003;44956;52.422;20.818;2023-04-01T07:23:26;10.25;10.25;5.50
59179;PMS7003;44956;52.422;20.818;2023-04-01T07:26:43;12.00;10.25;6.00
59179;PMS7003;44956;52.422;20.818;2023-04-01T07:29:49;8.00;8.00;6.00
59179;PMS7003;44956;52.422;20.818;2023-04-01T07:36:13;6.50;6.50;3.00
59179;PMS7003;44956;52.422;20.818;2023-04-01T07:50:13;9.00;8.00;3.50
59179;PMS7003;44956;52.422;20.818;2023-04-01T07:57:02;8.00;7.75;5.00
59179;PMS7003;44956;52.422;20.818;2023-04-01T08:00:47;2.00;2.00;1.25
59179;PMS7003;44956;52.422;20.818;2023-04-01T08:15:17;9.00;6.50;4.25
59179;PMS7003;44956;52.422;20.818;2023-04-01T08:19:02;9.00;8.00;5.00
59179;PMS7003;44956;52.422;20.818;2023-04-01T08:22:29;10.25;10.25;6.00
59179;PMS7003;44956;52.422;20.818;2023-04-01T08:25:39;5.75;5.75;3.00
59179;PMS7003;44956;52.422;20.818;2023-04-01T08:28:51;10.50;10.50;5.00
59179;PMS7003;44956;52.422;20.818;2023-04-01T08:32:10;10.00;10.00;6.00
59179;PMS7003;44956;52.422;20.818;2023-04-01T08:35:50;8.00;7.50;5.00
59179;PMS7003;44956;52.422;20.818;2023-04-01T08:39:07;14.75;10.50;6.00
59179;PMS7003;44956;52.422;20.818;2023-04-01T08:42:27;8.00;8.00;5.25
59179;PMS7003;44956;52.422;20.818;2023-04-01T09:00:23;17.75;16.75;8.00
59179;PMS7003;44956;52.422;20.818;2023-04-01T09:04:14;19.50;16.75;10.50
59179;PMS7003;44956;52.422;20.818;2023-04-01T09:07:49;17.50;15.50;8.00
59179;PMS7003;44956;52.422;20.818;2023-04-01T09:11:44;17.50;16.25;8.00
59179;PMS7003;44956;52.422;20.818;2023-04-01T09:19:11;22.00;18.00;8.75
59179;PMS7003;44956;52.422;20.818;2023-04-01T09:29:24;19.25;17.25;8.50
59179;PMS7003;44956;52.422;20.818;2023-04-01T09:32:57;17.25;17.25;10.25
59179;PMS7003;44956;52.422;20.818;2023-04-01T09:39:49;15.75;14.75;9.00
59179;PMS7003;44956;52.422;20.818;2023-04-01T09:50:27;12.25;12.25;7.00
59179;PMS7003;44956;52.422;20.818;2023-04-01T09:53:37;15.50;15.00;10.00
59179;PMS7003;44956;52.422;20.818;2023-04-01T10:11:26;14.00;11.00;6.75
59179;PMS7003;44956;52.422;20.818;2023-04-01T10:29:10;12.00;9.50;6.00
59179;PMS7003;44956;52.422;20.818;2023-04-01T10:43:49;11.50;11.25;6.25
59179;PMS7003;44956;52.422;20.818;2023-04-01T10:53:49;14.75;14.75;7.25
59179;PMS7003;44956;52.422;20.818;2023-04-01T11:01:27;11.50;10.50;6.75
59179;PMS7003;44956;52.422;20.818;2023-04-01T11:15:48;8.50;8.50;4.00
59179;PMS7003;44956;52.422;20.818;2023-04-01T11:19:39;6.00;6.00;5.00
59179;PMS7003;44956;52.422;20.818;2023-04-01T11:23:13;11.75;8.75;4.25
59179;PMS7003;44956;52.422;20.818;2023-04-01T11:26:45;10.25;9.75;5.50
59179;PMS7003;44956;52.422;20.818;2023-04-01T11:30:39;11.75;11.25;6.25
59179;PMS7003;44956;52.422;20.818;2023-04-01T11:34:13;17.00;13.75;7.50
59179;PMS7003;44956;52.422;20.818;2023-04-01T11:41:26;13.00;11.75;7.00
59179;PMS7003;44956;52.422;20.818;2023-04-01T11:46:02;16.50;14.00;8.75
59179;PMS7003;44956;52.422;20.818;2023-04-01T11:50:51;25.75;19.25;11.00
59179;PMS7003;44956;52.422;20.818;2023-04-01T12:08:06;6.25;6.25;3.25
59179;PMS7003;44956;52.422;20.818;2023-04-01T12:11:34;3.25;3.25;2.00
59179;PMS7003;44956;52.422;20.818;2023-04-01T12:41:24;3.25;3.25;2.00
59179;PMS7003;44956;52.422;20.818;2023-04-01T12:55:00;6.00;4.50;2.00
59179;PMS7003;44956;52.422;20.818;2023-04-01T13:01:46;10.00;6.75;3.00
59179;PMS7003;44956;52.422;20.818;2023-04-01T13:12:13;7.00;6.50;5.00
59179;PMS7003;44956;52.422;20.818;2023-04-01T13:22:07;9.25;8.25;6.00
59179;PMS7003;44956;52.422;20.818;2023-04-01T13:28:27;11.25;11.00;7.50
59179;PMS7003;44956;52.422;20.818;2023-04-01T13:49:46;10.50;10.25;6.00
59179;PMS7003;44956;52.422;20.818;2023-04-01T13:52:51;12.25;11.00;6.00
59179;PMS7003;44956;52.422;20.818;2023-04-01T14:02:51;13.75;11.25;6.00
59179;PMS7003;44956;52.422;20.818;2023-04-01T14:06:33;11.00;10.50;6.00
59179;PMS7003;44956;52.422;20.818;2023-04-01T14:20:07;10.50;9.50;5.25
59179;PMS7003;44956;52.422;20.818;2023-04-01T14:23:36;9.50;8.50;5.00
59179;PMS7003;44956;52.422;20.818;2023-04-01T14:27:19;7.00;7.00;5.25
59179;PMS7003;44956;52.422;20.818;2023-04-01T14:40:58;7.00;7.00;3.00
59179;PMS7003;44956;52.422;20.818;2023-04-01T14:51:22;8.00;8.00;4.75
59179;PMS7003;44956;52.422;20.818;2023-04-01T14:54:46;8.00;7.00;2.00
59179;PMS7003;44956;52.422;20.818;2023-04-01T14:57:59;5.75;5.75;2.25
59179;PMS7003;44956;52.422;20.818;2023-04-01T15:04:36;5.50;5.00;3.00
59179;PMS7003;44956;52.422;20.818;2023-04-01T15:14:54;9.00;9.00;3.50
59179;PMS7003;44956;52.422;20.818;2023-04-01T15:32:24;12.25;10.75;6.00
59179;PMS7003;44956;52.422;20.818;2023-04-01T15:35:39;14.50;10.25;5.25
59179;PMS7003;44956;52.422;20.818;2023-04-01T15:42:32;16.00;13.75;9.00
59179;PMS7003;44956;52.422;20.818;2023-04-01T15:52:40;16.00;14.75;8.00
59179;PMS7003;44956;52.422;20.818;2023-04-01T15:55:50;11.00;10.00;6.00
59179;PMS7003;44956;52.422;20.818;2023-04-01T15:59:12;17.25;16.00;10.00
59179;PMS7003;44956;52.422;20.818;2023-04-01T16:02:42;12.75;12.00;8.00
59179;PMS7003;44956;52.422;20.818;2023-04-01T16:09:33;21.50;20.25;13.25
59179;PMS7003;44956;52.422;20.818;2023-04-01T16:13:00;10.50;10.50;7.00
59179;PMS7003;44956;52.422;20.818;2023-04-01T16:16:23;14.25;14.25;6.75
59179;PMS7003;44956;52.422;20.818;2023-04-01T16:22:53;10.75;10.00;6.25
59179;PMS7003;44956;52.422;20.818;2023-04-01T16:26:01;11.75;10.50;6.00
59179;PMS7003;44956;52.422;20.818;2023-04-01T16:29:24;12.75;11.00;6.75
59179;PMS7003;44956;52.422;20.818;2023-04-01T16:32:43;11.25;10.00;6.00
59179;PMS7003;44956;52.422;20.818;2023-04-01T16:36:12;9.25;9.00;6.00
59179;PMS7003;44956;52.422;20.818;2023-04-01T16:39:35;12.25;12.00;5.25
59179;PMS7003;44956;52.422;20.818;2023-04-01T16:42:56;11.50;10.00;6.00
59179;PMS7003;44956;52.422;20.818;2023-04-01T16:56:06;11.25;10.00;5.00
59179;PMS7003;44956;52.422;20.818;2023-04-01T16:59:15;6.50;6.50;5.25
59179;PMS7003;44956;52.422;20.818;2023-04-01T17:03:08;10.00;9.50;5.50
59179;PMS7003;44956;52.422;20.818;2023-04-01T17:06:03;10.75;10.00;6.00
59179;PMS7003;44956;52.422;20.818;2023-04-01T17:15:40;10.50;10.50;6.00
59179;PMS7003;44956;52.422;20.818;2023-04-01T17:26:20;16.25;13.00;6.00
59179;PMS7003;44956;52.422;20.818;2023-04-01T17:33:19;17.75;14.75;7.00
59179;PMS7003;44956;52.422;20.818;2023-04-01T18:04:25;25.00;21.25;10.25
59179;PMS7003;44956;52.422;20.818;2023-04-01T18:11:25;22.00;19.25;9.25
59179;PMS7003;44956;52.422;20.818;2023-04-01T18:15:41;27.00;18.75;10.00
59179;PMS7003;44956;52.422;20.818;2023-04-01T18:25:37;22.50;19.25;10.00
59179;PMS7003;44956;52.422;20.818;2023-04-01T18:32:43;17.75;16.00;10.00
59179;PMS7003;44956;52.422;20.818;2023-04-01T18:39:41;19.50;17.25;9.75
59179;PMS7003;44956;52.422;20.818;2023-04-01T18:43:02;21.25;19.00;9.50
59179;PMS7003;44956;52.422;20.818;2023-04-01T18:46:21;20.00;17.25;7.25
59179;PMS7003;44956;52.422;20.818;2023-04-01T18:53:29;18.50;17.25;10.25
59179;PMS7003;44956;52.422;20.818;2023-04-01T18:56:45;17.00;15.50;9.50
59179;PMS7003;44956;52.422;20.818;2023-04-01T19:06:15;19.75;16.25;9.75
59179;PMS7003;44956;52.422;20.818;2023-04-01T19:09:45;12.50;11.75;9.00
59179;PMS7003;44956;52.422;20.818;2023-04-01T19:16:42;18.50;16.75;10.25
59179;PMS7003;44956;52.422;20.818;2023-04-01T19:23:34;19.50;16.50;10.00
59179;PMS7003;44956;52.422;20.818;2023-04-01T19:26:53;23.25;14.75;9.00
59179;PMS7003;44956;52.422;20.818;2023-04-01T19:30:26;16.75;16.50;9.75
59179;PMS7003;44956;52.422;20.818;2023-04-01T19:33:41;17.50;14.25;9.00
59179;PMS7003;44956;52.422;20.818;2023-04-01T20:00:22;14.00;13.00;7.25
59179;PMS7003;44956;52.422;20.818;2023-04-01T20:10:08;12.75;12.25;7.25
59179;PMS7003;44956;52.422;20.818;2023-04-01T20:20:20;16.25;11.75;6.50
59179;PMS7003;44956;52.422;20.818;2023-04-01T20:23:30;16.50;14.50;8.50
59179;PMS7003;44956;52.422;20.818;2023-04-01T20:26:49;14.50;14.50;10.00
59179;PMS7003;44956;52.422;20.818;2023-04-01T20:29:56;12.75;12.75;9.00
59179;PMS7003;44956;52.422;20.818;2023-04-01T20:36:59;20.00;14.75;9.00
59179;PMS7003;44956;52.422;20.818;2023-04-01T20:43:58;12.25;12.25;8.50
59179;PMS7003;44956;52.422;20.818;2023-04-01T20:47:33;15.50;14.50;8.25
59179;PMS7003;44956;52.422;20.818;2023-04-01T20:50:53;20.50;12.75;8.50
59179;PMS7003;44956;52.422;20.818;2023-04-01T20:54:17;13.25;13.25;8.00
59179;PMS7003;44956;52.422;20.818;2023-04-01T21:01:13;23.25;13.75;8.50
59179;PMS7003;44956;52.422;20.818;2023-04-01T21:04:43;16.75;16.50;8.75
59179;PMS7003;44956;52.422;20.818;2023-04-01T21:18:14;18.25;16.00;10.00
59179;PMS7003;44956;52.422;20.818;2023-04-01T21:28:17;13.75;13.00;9.00
59179;PMS7003;44956;52.422;20.818;2023-04-01T21:38:55;15.00;13.75;8.75
59179;PMS7003;44956;52.422;20.818;2023-04-01T22:06:32;12.00;10.50;5.00
59179;PMS7003;44956;52.422;20.818;2023-04-01T22:09:40;14.00;11.50;7.50
59179;PMS7003;44956;52.422;20.818;2023-04-01T22:16:27;16.00;13.25;8.00
59179;PMS7003;44956;52.422;20.818;2023-04-01T22:23:47;10.50;10.50;6.50
59179;PMS7003;44956;52.422;20.818;2023-04-01T22:30:04;17.50;12.50;7.50
59179;PMS7003;44956;52.422;20.818;2023-04-01T22:36:47;13.50;12.75;6.50
59179;PMS7003;44956;52.422;20.818;2023-04-01T22:43:18;15.25;15.25;8.00
59179;PMS7003;44956;52.422;20.818;2023-04-01T22:46:41;14.25;14.25;6.50
59179;PMS7003;44956;52.422;20.818;2023-04-01T22:50:02;16.75;15.25;9.00
59179;PMS7003;44956;52.422;20.818;2023-04-01T22:56:18;13.75;13.75;8.50
59179;PMS7003;44956;52.422;20.818;2023-04-01T22:59:42;14.50;13.00;8.25
59179;PMS7003;44956;52.422;20.818;2023-04-01T23:03:06;18.00;13.75;8.00
59179;PMS7003;44956;52.422;20.818;2023-04-01T23:06:35;11.50;10.50;7.50
59179;PMS7003;44956;52.422;20.818;2023-04-01T23:09:41;16.75;13.00;8.00
59179;PMS7003;44956;52.422;20.818;2023-04-01T23:12:44;14.00;14.00;8.00
59179;PMS7003;44956;52.422;20.818;2023-04-01T23:15:47;12.75;9.50;5.00
59179;PMS7003;44956;52.422;20.818;2023-04-01T23:18:52;13.25;13.25;6.75
59179;PMS7003;44956;52.422;20.818;2023-04-01T23:22:33;19.00;16.00;8.75
59179;PMS7003;44956;52.422;20.818;2023-04-01T23:29:16;11.00;9.25;6.00
59179;PMS7003;44956;52.422;20.818;2023-04-01T23:32:22;16.50;15.00;9.00
59179;PMS7003;44956;52.422;20.818;2023-04-01T23:35:29;13.50;12.00;6.50
59179;PMS7003;44956;52.422;20.818;2023-04-01T23:38:39;15.25;13.50;8.00
59179;PMS7003;44956;52.422;20.818;2023-04-01T23:41:43;14.50;14.00;8.75
59179;PMS7003;44956;52.422;20.818;2023-04-01T23:44:47;15.50;14.00;8.00
59179;PMS7003;44956;52.422;20.818;2023-04-01T23:47:52;14.75;13.50;9.00
59179;PMS7003;44956;52.422;20.818;2023-04-01T23:50:56;23.00;19.25;12.75
59179;PMS7003;44956;52.422;20.818;2023-04-01T23:54:03;21.50;16.25;9.50
59179;PMS7003;44956;52.422;20.818;2023-04-01T23:57:32;18.50;17.25;10.00
